Tallahassee Regional Airport
KTLH : now visible

Airfield :











YOU CAN JOIN US ON...

 
LOGIN :

Register | Disclaimer

   EN    FR    IT 

 









Legend :    VFR   Marginal VFR   IFR   Intensive IFR   Very Intensive IFR
Visi :
Ceiling :
>= 8 km
>= 3000ft
5 to 8 km
1000 to 3000 ft
1500m to 5 km
500 to 1000 ft
800 to 1500m
200 to 500 ft
< 800m
< 200 ft
Symbols :   Thunderstorms  Fog  Heavy snow  Heavy precipitations  Wind > 20 kt






- Airport Elevation : 81 ft
- IATA code : TLH


KTLH - Tallahassee Regional

CURRENT METAR :
  • 172253Z 09009KT 10SM SCT250 18/04 A3039 RMK AO2 SLP290 T01830044

EXPIRED METARs :
  • 172153Z 08009KT 10SM SCT250 20/03 A3037 RMK AO2 SLP284 T02000028
  • 172053Z 09014G21KT 10SM SCT250 22/M02 A3037 RMK AO2 SLP282 T02171017 55009

TAF KTLH
Valid from the 18 at 00:00 until the 19 at 00:00 UTC


172320Z 1800/1824 09006KT P6SM BKN250
FM181800 17007KT P6SM BKN050



MET'MAP, your aeronautical weather chart ! - Copyright ORBIFLY December 2007 - Disclaimer

ORBIFLY MET'MAP TEAM :

Programming & Development : Alexandra Zaïnal
Concept & original design : Baudouin d'Aumeries
Assistance for programming : Marc-Olivier Méhu
Technical & hardware support : Manuel Goepfert

Contact : metmap@orbifly.com




SOURCES & CREDITS :

   NOAA       Earth
Advisory